• Join FlightAware (Why Join?)
  • Login
  • US Flag 
03:41AM EST


 

Airport Tracker/Info


-or-


 

Live Flight TrackerFlight Track Log ✈ N567SR ✈ 28-Apr-2013 ✈ KMQI - N14

Flight Track Log - Related Links

Times and Time Zones

All times are in EDT time to prevent confusion due to time zone crossing. See the N567SR flight status page for this flight to view local times or setup timezone preferences in your user account.

Time Position Orientation Groundspeed Altitude Reporting Facility
EDT Latitude Longitude Course Direction KTS MPH feet Rate Location/Type
09:14AM 36.1708 -75.6054 19° North  Level FlightAware Approximate
09:15AM 36.2134 -75.5925 11° North  Level FlightAware Approximate
09:16AM 36.2564 -75.5812 15° North  Level FlightAware Approximate
09:16AM 36.0036 -75.8053 312° West 182 209 3,100  Level Washington Center
09:17AM 36.2989 -75.5671 15° North  Level FlightAware Approximate
09:17AM 36.0347 -75.8489 311° West 182 209 3,400  Level Washington Center
09:18AM 36.3413 -75.5530 15° North  Level FlightAware Approximate
09:18AM 36.0639 -75.8900 311° West 177 204 4,000  Level Washington Center
09:19AM 36.0908 -75.9339 307° West 171 197 4,700 660 Climbing Washington Center
09:20AM 36.1200 -75.9753 311° West 166 191 5,300 720 Climbing Washington Center
09:21AM 36.1447 -76.0139 308° West 155 178 6,200 780 Climbing Washington Center
09:22AM 36.1697 -76.0475 313° West 150 173 7,000 780 Climbing Washington Center
09:23AM 36.1947 -76.0861 309° West 145 167 7,800 720 Climbing Washington Center
09:24AM 36.2175 -76.1222 308° West 140 161 8,500 600 Climbing Washington Center
09:25AM 36.2444 -76.1586 313° West 140 161 9,000 240 Climbing Washington Center
09:26AM 36.2797 -76.1794 335° Northwest 134 154 9,100  Climbing Washington Center
09:27AM 36.3297 -76.1797 360° North 145 167 9,100 -120 Level Washington Center
09:27AM 36.3444 -76.1850 344° North 173 199 9,000  Descending Washington Center
09:28AM 36.3778 -76.1828 North 162 186 9,100  Climbing Washington Center
09:28AM 36.4008 -76.1856 354° North 169 194 9,000  Descending Washington Center
09:29AM 36.4258 -76.1856 360° North 162 186 9,100  Climbing Washington Center
09:29AM 36.4403 -76.1883 351° North 173 199 9,000 -120 Descending Washington Center
09:30AM 36.4883 -76.1914 357° North 173 199 9,000  Level Washington Center
09:31AM 36.5364 -76.1942 357° North 175 201 9,000  Level Washington Center
09:32AM 36.5864 -76.1919 North 177 204 9,000  Level Washington Center
09:33AM 36.6364 -76.1950 357° North 177 204 9,000  Level Washington Center
09:34AM 36.6928 -76.1981 358° North 177 204 9,000  Level Washington Center
09:35AM 36.7428 -76.2011 357° North 176 203 9,000  Level Washington Center
09:36AM 36.7928 -76.2014 360° North 176 203 9,000  Level Washington Center
09:37AM 36.8408 -76.2044 357° North 176 203 9,000  Level Washington Center
09:38AM 36.8931 -76.2075 357° North 177 204 9,000  Level Washington Center
09:39AM 36.9369 -76.1844 23° Northeast 179 206 9,000  Level Washington Center
09:40AM 36.9786 -76.1639 22° Northeast 175 201 9,000  Level Washington Center
09:41AM 37.0206 -76.1486 16° North 175 201 9,000  Level Washington Center
09:42AM 37.0664 -76.1281 20° North 174 200 9,000  Level Washington Center
09:43AM 37.1125 -76.1075 20° North 174 200 9,000  Level Washington Center
09:44AM 37.1586 -76.0869 20° North 174 200 9,000  Level Washington Center
09:45AM 37.2044 -76.0692 17° North 174 200 9,000  Level Washington Center
09:46AM 37.2506 -76.0458 22° Northeast 173 199 9,000  Level Washington Center
09:47AM 37.2986 -76.0253 19° North 172 198 9,000  Level Washington Center
09:48AM 37.3444 -76.0047 20° North 171 197 9,000  Level Washington Center
09:49AM 37.3883 -75.9708 32° Northeast 192 221 9,100  Climbing Washington Center
09:50AM 37.4281 -75.9422 30° Northeast 192 221 9,100 -60 Level Washington Center
09:51AM 37.4700 -75.9111 30° Northeast 181 208 9,000  Descending Washington Center
09:52AM 37.5094 -75.8825 30° Northeast 169 194 9,100  Climbing Washington Center
09:53AM 37.5492 -75.8511 32° Northeast 164 189 9,100 -60 Level Washington Center
09:54AM 37.5889 -75.8197 32° Northeast 164 189 9,000 -60 Descending Washington Center
09:55AM 37.6308 -75.7886 30° Northeast 164 189 9,000  Level Washington Center
09:56AM 37.6725 -75.7597 29° Northeast 164 189 9,000  Level Washington Center
09:57AM 37.7122 -75.7256 34° Northeast 164 189 9,000  Level Washington Center
09:58AM 37.7539 -75.6994 26° Northeast 164 189 9,100  Climbing Washington Center
09:59AM 37.7956 -75.6681 31° Northeast 164 189 9,100  Level Washington Center
10:00AM 37.8353 -75.6364 32° Northeast 164 189 9,100  Level Washington Center
10:01AM 37.8792 -75.6050 29° Northeast 164 189 9,100  Level Washington Center
10:02AM 37.9186 -75.5706 35° Northeast 164 189 9,100  Level Washington Center
10:03AM 37.9583 -75.5417 30° Northeast 164 189 9,100 -60 Level Washington Center
10:04AM 37.9978 -75.5100 32° Northeast 164 189 9,000 -60 Descending Washington Center
10:05AM 38.0375 -75.4811 30° Northeast 164 189 9,000  Level Washington Center
10:06AM 38.0772 -75.4544 28° Northeast 164 189 9,100  Climbing Washington Center
10:07AM 38.1189 -75.4281 26° Northeast 164 189 9,100 -60 Level Washington Center
10:08AM 38.1625 -75.4017 25° Northeast 164 189 9,000 -60 Descending Washington Center
10:09AM 38.2022 -75.3725 30° Northeast 159 183 9,000  Level Washington Center
10:10AM 38.2458 -75.3458 26° Northeast 159 183 9,000  Level Washington Center
10:11AM 38.2875 -75.3219 24° Northeast 159 183 9,100  Climbing Washington Center
10:12AM 38.3269 -75.2953 28° Northeast 159 183 9,000  Descending Washington Center
10:13AM 38.3667 -75.2661 30° Northeast 159 183 9,100  Climbing Washington Center
10:14AM 38.4083 -75.2472 20° North 159 183 9,000 -60 Descending Washington Center
10:15AM 38.4497 -75.2153 31° Northeast 154 177 9,000  Level Washington Center
10:16AM 38.4914 -75.1939 22° Northeast 154 177 9,100  Climbing Washington Center
10:17AM 38.5311 -75.1669 28° Northeast 154 177 9,000 -60 Descending Washington Center
10:18AM 38.5725 -75.1375 29° Northeast 154 177 9,000  Level Washington Center
10:19AM 38.6122 -75.1133 25° Northeast 154 177 9,000  Level Washington Center
10:20AM 38.6536 -75.0867 27° Northeast 154 177 9,100  Climbing Washington Center
10:21AM 38.6931 -75.0597 28° Northeast 154 177 9,100  Level Washington Center
10:22AM 38.7369 -75.0356 23° Northeast 154 177 9,100  Level Washington Center
10:23AM 38.7764 -75.0086 28° Northeast 154 177 9,100 -300 Level Washington Center
10:24AM 38.8219 -74.9814 25° Northeast 159 183 8,600 -540 Descending Washington Center